Time;durP1;ratioP1;P1;durP2;ratioP2;P2;SDS_P1;SDS_P2;PMS_P1;PMS_P2;Temp;Humidity;BMP_temperature;BMP_pressure;BME280_temperature;BME280_humidity;BME280_pressure;Samples;Min_cycle;Max_cycle;Signal;HPM_P1;HPM_P2
2022/06/22 00:00:36;;;;;;;2.60;2.40;;;;;;;14.56;74.23;100558.81;5029645;27;20020;-70
2022/06/22 00:03:02;;;;;;;2.63;2.40;;;;;;;14.46;74.54;100558.16;5014528;27;20056;-70
2022/06/22 00:05:47;;;;;;;2.80;2.60;;;;;;;14.52;74.02;100555.63;5012021;27;20434;-69
2022/06/22 00:08:16;;;;;;;3.90;2.70;;;;;;;14.62;73.33;100547.50;5031450;27;20024;-69
2022/06/22 00:10:53;;;;;;;6.03;2.72;;;;;;;14.43;73.95;100548.66;5014155;27;20017;-67
2022/06/22 00:13:26;;;;;;;3.53;2.58;;;;;;;14.26;74.68;100535.34;5027805;27;20036;-69
2022/06/22 00:15:59;;;;;;;2.95;2.35;;;;;;;14.37;74.66;100544.03;5027800;27;20021;-68
2022/06/22 00:18:30;;;;;;;4.97;2.65;;;;;;;14.21;75.27;100552.81;5030938;27;20498;-68
2022/06/22 00:20:58;;;;;;;3.90;2.65;;;;;;;14.04;76.30;100547.47;5026645;27;21070;-69
2022/06/22 00:23:25;;;;;;;3.58;2.78;;;;;;;14.04;76.23;100549.31;5009776;27;20037;-69
2022/06/22 00:25:50;;;;;;;3.42;2.80;;;;;;;14.12;75.79;100556.47;5011088;28;20778;-69
2022/06/22 00:28:29;;;;;;;3.55;3.00;;;;;;;13.99;76.22;100568.44;5012700;27;20102;-69
2022/06/22 00:31:14;;;;;;;2.85;2.55;;;;;;;13.91;76.69;100568.41;5012451;28;20435;-69
2022/06/22 00:34:03;;;;;;;2.80;2.50;;;;;;;13.76;76.85;100567.38;4977675;28;20153;-69
2022/06/22 00:36:34;;;;;;;4.60;2.83;;;;;;;13.71;76.96;100575.84;4995679;28;20043;-67
2022/06/22 00:39:15;;;;;;;2.80;2.60;;;;;;;13.69;77.38;100562.72;4979015;28;20061;-68
2022/06/22 00:41:41;;;;;;;3.28;2.97;;;;;;;13.45;77.98;100547.47;5014824;27;20023;-69
2022/06/22 00:44:07;;;;;;;3.63;2.83;;;;;;;13.70;76.93;100547.56;4976323;28;20065;-68
2022/06/22 00:46:32;;;;;;;3.22;3.03;;;;;;;14.03;75.82;100543.16;4977577;28;20067;-69
2022/06/22 00:48:58;;;;;;;4.30;2.75;;;;;;;13.74;76.38;100538.28;5021166;27;20025;-67
2022/06/22 00:51:30;;;;;;;5.00;3.00;;;;;;;13.69;76.48;100535.28;5015777;27;20427;-68
2022/06/22 00:54:09;;;;;;;3.20;3.00;;;;;;;13.63;76.43;100530.59;4978446;28;20208;-68
2022/06/22 00:56:42;;;;;;;4.05;3.10;;;;;;;13.65;76.45;100528.59;4993004;28;20374;-69
2022/06/22 00:59:23;;;;;;;3.08;2.80;;;;;;;13.82;75.94;100518.84;5009086;28;20086;-69
2022/06/22 01:02:16;;;;;;;5.78;3.03;;;;;;;13.79;75.32;100524.50;5013920;27;20136;-67
2022/06/22 01:05:05;;;;;;;4.28;2.90;;;;;;;13.45;76.45;100523.56;5008794;28;20017;-69
2022/06/22 01:07:41;;;;;;;3.30;3.00;;;;;;;13.38;76.95;100538.50;4997495;28;20025;-67
2022/06/22 01:10:24;;;;;;;3.70;2.78;;;;;;;13.19;78.05;100540.38;4991090;27;20013;-68
2022/06/22 01:13:13;;;;;;;3.10;2.90;;;;;;;13.15;78.23;100536.38;5009589;28;20557;-69
2022/06/22 01:15:47;;;;;;;3.20;2.97;;;;;;;13.23;77.50;100535.59;5010763;27;20117;-67
2022/06/22 01:18:12;;;;;;;3.08;2.75;;;;;;;13.14;77.50;100533.88;4992900;27;20017;-69
2022/06/22 01:20:56;;;;;;;3.17;2.90;;;;;;;13.08;78.21;100542.50;5021446;27;20019;-69
2022/06/22 01:23:26;;;;;;;3.60;2.93;;;;;;;13.05;78.27;100546.28;5030877;27;20510;-68
2022/06/22 01:26:12;;;;;;;3.30;3.00;;;;;;;12.93;78.36;100545.75;5028382;27;20917;-69
2022/06/22 01:28:37;;;;;;;3.08;2.80;;;;;;;12.81;78.80;100550.47;5016024;27;20021;-69
2022/06/22 01:31:12;;;;;;;4.68;3.00;;;;;;;12.93;78.51;100536.91;5031339;27;20258;-69
2022/06/22 01:33:40;;;;;;;3.78;2.90;;;;;;;12.89;78.26;100523.13;5012810;27;20021;-67
2022/06/22 01:36:21;;;;;;;3.78;3.13;;;;;;;13.11;77.37;100511.09;5014143;27;20479;-68
2022/06/22 01:38:46;;;;;;;7.80;3.00;;;;;;;13.04;77.43;100513.59;5017594;27;20147;-68
2022/06/22 01:41:35;;;;;;;3.00;2.80;;;;;;;13.04;77.18;100505.63;5012688;27;20012;-67
2022/06/22 01:44:11;;;;;;;2.75;2.50;;;;;;;12.98;77.12;100495.63;4997503;27;20190;-69
2022/06/22 01:46:52;;;;;;;3.22;2.80;;;;;;;12.85;77.88;100506.66;5019526;27;20012;-69
2022/06/22 01:49:27;;;;;;;3.75;2.60;;;;;;;12.66;78.32;100510.41;5028359;27;20013;-69
2022/06/22 01:51:54;;;;;;;2.95;2.70;;;;;;;12.49;79.62;100516.56;5006396;28;20362;-69
2022/06/22 01:54:31;;;;;;;3.25;2.75;;;;;;;12.45;80.72;100531.13;4990773;28;20037;-68
2022/06/22 01:57:06;;;;;;;3.03;2.83;;;;;;;12.47;81.40;100526.50;5010238;28;20124;-69
2022/06/22 01:59:34;;;;;;;3.58;2.78;;;;;;;12.64;79.81;100522.97;4976888;28;20490;-67
2022/06/22 02:02:02;;;;;;;2.70;2.50;;;;;;;12.80;79.03;100514.25;4998555;27;20016;-68
2022/06/22 02:04:39;;;;;;;3.97;2.60;;;;;;;12.83;78.92;100518.44;5014887;27;20021;-69
2022/06/22 02:07:46;;;;;;;4.53;2.55;;;;;;;12.66;79.35;100521.00;4996105;27;20048;-69
2022/06/22 02:10:32;;;;;;;2.80;2.50;;;;;;;12.54;79.80;100516.94;5016983;27;20025;-70
2022/06/22 02:13:06;;;;;;;2.90;2.70;;;;;;;12.73;78.82;100518.53;5030919;27;20856;-70
2022/06/22 02:16:10;;;;;;;6.07;2.90;;;;;;;12.49;79.67;100530.69;5029623;27;20023;-69
2022/06/22 02:18:48;;;;;;;2.72;2.53;;;;;;;12.49;80.09;100528.03;5028851;27;20025;-70
2022/06/22 02:21:16;;;;;;;2.60;2.40;;;;;;;12.59;79.48;100532.38;5012020;27;20485;-69
2022/06/22 02:23:41;;;;;;;6.70;2.75;;;;;;;12.40;79.95;100541.38;5035004;27;20025;-68
2022/06/22 02:26:16;;;;;;;2.90;2.60;;;;;;;12.52;79.53;100526.84;5013693;27;20013;-68
2022/06/22 02:28:42;;;;;;;3.85;2.75;;;;;;;12.43;79.87;100523.31;5032225;27;20949;-69
2022/06/22 02:31:08;;;;;;;3.05;2.80;;;;;;;12.65;78.70;100527.31;4999085;27;20028;-69
2022/06/22 02:33:33;;;;;;;3.05;2.58;;;;;;;12.65;78.46;100518.50;5034038;27;20105;-67
2022/06/22 02:35:59;;;;;;;2.40;2.30;;;;;;;12.44;79.18;100516.22;4999961;28;20017;-67
2022/06/22 02:38:24;;;;;;;2.85;2.70;;;;;;;12.29;80.36;100511.44;5016974;28;20445;-69
2022/06/22 02:46:24;;;;;;;2.75;2.22;;;;;;;12.12;81.22;100526.38;5031448;27;20206;-68
2022/06/22 02:48:55;;;;;;;2.88;2.45;;;;;;;12.22;80.75;100521.00;5015071;28;20816;-69
2022/06/22 02:51:29;;;;;;;2.85;2.60;;;;;;;12.18;80.66;100516.97;5014793;28;20021;-70
2022/06/22 02:53:56;;;;;;;2.70;2.50;;;;;;;12.35;80.24;100510.84;4997152;28;20037;-69
2022/06/22 02:56:27;;;;;;;4.38;2.50;;;;;;;12.36;80.32;100496.56;5014707;28;20116;-67
2022/06/22 02:58:53;;;;;;;3.85;2.40;;;;;;;12.46;79.70;100488.50;5012500;28;20071;-67
2022/06/22 03:01:27;;;;;;;3.28;2.20;;;;;;;12.52;79.00;100484.41;5014295;28;20345;-67
2022/06/22 03:03:58;;;;;;;2.40;2.30;;;;;;;12.47;78.88;100479.56;4983443;28;20058;-68
2022/06/22 03:06:32;;;;;;;2.45;2.25;;;;;;;12.37;79.18;100479.66;4977309;28;20018;-69
2022/06/22 03:08:59;;;;;;;2.60;2.45;;;;;;;12.42;79.35;100475.72;4992599;28;20040;-67
2022/06/22 03:11:24;;;;;;;2.50;2.38;;;;;;;12.23;79.78;100464.31;4992268;28;20478;-69
2022/06/22 03:13:53;;;;;;;2.50;2.30;;;;;;;12.24;80.01;100465.97;5007654;28;20489;-69
2022/06/22 03:16:30;;;;;;;2.20;2.10;;;;;;;12.33;79.52;100466.88;4997261;28;21133;-70
2022/06/22 03:18:56;;;;;;;3.08;2.30;;;;;;;12.32;79.28;100459.88;5023487;27;20531;-67
2022/06/22 03:21:22;;;;;;;3.53;2.53;;;;;;;12.37;79.67;100449.66;5008900;28;20388;-68
2022/06/22 03:23:59;;;;;;;2.58;2.47;;;;;;;12.41;79.16;100455.47;5028559;28;20657;-68
2022/06/22 03:26:28;;;;;;;2.60;2.40;;;;;;;12.27;79.72;100470.97;5029810;27;20025;-69
2022/06/22 03:29:16;;;;;;;2.75;2.55;;;;;;;12.09;80.49;100468.34;5029395;27;20788;-67
2022/06/22 03:31:46;;;;;;;4.88;2.55;;;;;;;11.98;81.56;100474.72;5005607;27;20020;-68
2022/06/22 03:34:17;;;;;;;4.97;2.63;;;;;;;12.01;81.61;100479.72;5019537;27;20029;-69
2022/06/22 03:36:58;;;;;;;2.40;2.20;;;;;;;12.00;81.34;100482.50;5016336;27;20020;-69
2022/06/22 03:39:26;;;;;;;2.65;2.45;;;;;;;12.14;81.16;100494.41;4999978;27;20136;-68
2022/06/22 03:42:04;;;;;;;2.55;2.33;;;;;;;12.23;80.43;100469.63;5000535;27;20015;-68
2022/06/22 03:44:51;;;;;;;3.75;2.60;;;;;;;12.09;81.27;100472.81;5015426;27;20001;-69
2022/06/22 03:47:31;;;;;;;7.88;2.42;;;;;;;12.19;81.22;100485.00;5018516;27;20061;-68
2022/06/22 03:50:11;;;;;;;2.90;2.67;;;;;;;12.12;81.27;100483.13;5016037;27;20013;-69
2022/06/22 03:52:45;;;;;;;2.60;2.40;;;;;;;12.06;81.67;100492.53;5032250;27;20137;-67
2022/06/22 03:55:15;;;;;;;4.72;2.40;;;;;;;12.11;81.45;100508.81;5010612;27;20563;-69
2022/06/22 03:57:43;;;;;;;2.47;2.35;;;;;;;12.15;81.37;100514.63;5011166;28;20204;-68
2022/06/22 04:00:10;;;;;;;2.97;2.40;;;;;;;12.14;81.76;100515.63;5009740;27;20069;-70
2022/06/22 04:02:35;;;;;;;2.88;2.67;;;;;;;12.10;82.21;100514.25;5012850;28;20006;-70
2022/06/22 04:05:01;;;;;;;4.20;2.70;;;;;;;12.23;82.46;100520.00;5011700;28;20437;-70
2022/06/22 04:07:31;;;;;;;2.53;2.22;;;;;;;12.51;81.33;100525.22;4995745;28;20878;-69
2022/06/22 04:09:57;;;;;;;4.35;2.53;;;;;;;12.45;81.45;100525.81;4980570;28;20128;-71
2022/06/22 04:12:27;;;;;;;2.70;2.50;;;;;;;12.52;81.62;100532.16;5014171;28;20021;-71
2022/06/22 04:15:09;;;;;;;5.07;2.67;;;;;;;12.54;81.82;100527.56;5026896;28;20074;-70
2022/06/22 04:17:40;;;;;;;2.70;2.50;;;;;;;12.66;81.32;100522.81;5013761;27;20048;-69
2022/06/22 04:20:50;;;;;;;2.67;2.47;;;;;;;12.81;80.99;100531.06;5014438;27;20067;-69
2022/06/22 04:23:19;;;;;;;2.42;2.30;;;;;;;12.79;80.96;100539.19;5033815;27;20021;-70
2022/06/22 04:25:44;;;;;;;4.28;2.35;;;;;;;12.74;81.40;100530.84;5017279;27;20939;-72
2022/06/22 04:28:10;;;;;;;3.92;2.60;;;;;;;12.82;81.28;100522.91;5033140;27;20013;-70
2022/06/22 04:30:43;;;;;;;2.85;2.65;;;;;;;12.94;81.00;100530.63;5016826;27;20008;-70
2022/06/22 04:33:32;;;;;;;3.50;2.60;;;;;;;13.16;80.34;100524.75;5019165;27;20020;-69
2022/06/22 04:36:05;;;;;;;3.05;2.28;;;;;;;13.06;80.07;100510.78;5020513;27;20017;-70
2022/06/22 04:38:41;;;;;;;2.50;2.30;;;;;;;13.02;80.27;100525.34;5015293;27;20016;-69
2022/06/22 04:41:26;;;;;;;2.25;2.10;;;;;;;12.99;80.24;100523.03;5030428;27;20565;-70
2022/06/22 04:43:51;;;;;;;3.42;2.20;;;;;;;12.94;80.66;100534.09;5031888;27;21053;-70
2022/06/22 04:46:24;;;;;;;3.05;2.20;;;;;;;12.97;80.42;100531.16;5016418;27;20017;-69
2022/06/22 04:48:49;;;;;;;6.47;2.40;;;;;;;13.06;80.07;100530.19;5016492;27;20845;-69
2022/06/22 04:51:18;;;;;;;3.03;2.10;;;;;;;13.19;79.77;100513.81;5031522;27;20057;-70
2022/06/22 04:53:56;;;;;;;4.05;2.10;;;;;;;13.15;80.43;100517.78;5016621;27;20342;-69
2022/06/22 04:56:36;;;;;;;4.22;2.50;;;;;;;13.36;79.86;100520.03;5015031;27;20024;-70
2022/06/22 04:59:02;;;;;;;2.17;2.08;;;;;;;13.60;79.57;100526.44;4997120;27;20071;-70
2022/06/22 05:01:37;;;;;;;3.85;2.38;;;;;;;13.74;79.31;100525.81;5012000;27;20515;-71
2022/06/22 05:04:13;;;;;;;3.20;2.90;;;;;;;13.96;78.48;100517.38;5016820;27;20617;-69
2022/06/22 05:06:45;;;;;;;2.83;2.58;;;;;;;14.05;78.61;100530.50;4996929;27;20065;-70
2022/06/22 05:09:15;;;;;;;3.60;2.78;;;;;;;14.16;78.06;100523.22;5029615;27;20469;-70
2022/06/22 05:11:45;;;;;;;3.40;3.10;;;;;;;14.31;77.88;100539.34;5007571;28;20028;-71
2022/06/22 05:14:20;;;;;;;3.83;3.55;;;;;;;14.43;77.76;100538.84;4993137;28;20044;-70
2022/06/22 05:16:57;;;;;;;3.33;3.03;;;;;;;14.37;78.29;100544.84;4993251;28;20021;-69
2022/06/22 05:19:24;;;;;;;3.55;2.90;;;;;;;14.45;78.26;100535.19;5007086;27;20021;-70
2022/06/22 05:21:49;;;;;;;4.30;2.70;;;;;;;14.53;78.17;100532.53;5008615;28;20017;-70
2022/06/22 05:24:31;;;;;;;4.05;2.97;;;;;;;14.60;78.18;100528.19;5010577;28;20744;-70
2022/06/22 05:26:58;;;;;;;3.58;3.10;;;;;;;14.79;78.07;100532.34;5013117;28;20033;-69
2022/06/22 05:29:36;;;;;;;4.47;3.38;;;;;;;14.96;77.82;100532.31;4993500;28;20101;-71
2022/06/22 05:32:04;;;;;;;3.67;3.38;;;;;;;15.08;77.65;100529.09;5024091;27;20183;-72
2022/06/22 05:34:32;;;;;;;3.75;3.40;;;;;;;15.21;76.50;100531.22;5015161;27;20036;-69
2022/06/22 05:37:07;;;;;;;4.13;3.83;;;;;;;15.39;75.24;100536.31;5013511;27;20961;-70
2022/06/22 05:39:33;;;;;;;4.32;3.97;;;;;;;15.41;74.64;100517.47;5015018;27;20328;-69
2022/06/22 05:41:59;;;;;;;4.30;3.95;;;;;;;15.52;74.97;100517.06;5010974;27;20326;-71
2022/06/22 05:44:24;;;;;;;4.88;3.80;;;;;;;15.68;74.69;100516.19;5013694;27;20005;-70
2022/06/22 05:46:52;;;;;;;3.90;3.60;;;;;;;15.72;74.30;100530.81;5011433;28;20078;-70
2022/06/22 05:49:17;;;;;;;5.55;4.28;;;;;;;15.79;73.44;100533.63;5022782;27;20327;-70
2022/06/22 05:52:03;;;;;;;4.18;3.78;;;;;;;15.88;73.09;100523.75;5009079;28;20037;-69
2022/06/22 05:54:43;;;;;;;6.18;3.90;;;;;;;16.06;72.63;100529.63;5010284;28;20861;-70
2022/06/22 05:57:12;;;;;;;4.22;3.65;;;;;;;16.09;72.77;100534.59;5012965;27;20029;-68
2022/06/22 05:59:45;;;;;;;5.97;4.22;;;;;;;16.05;71.62;100533.31;5008923;27;20104;-70
2022/06/22 06:02:23;;;;;;;4.40;4.00;;;;;;;16.18;71.72;100545.22;5009349;28;20070;-69
2022/06/22 06:05:12;;;;;;;5.20;3.90;;;;;;;16.20;70.70;100545.88;5010415;28;20029;-71
2022/06/22 06:07:41;;;;;;;4.30;3.90;;;;;;;16.39;69.63;100539.22;4976273;28;20340;-71
2022/06/22 06:10:16;;;;;;;8.20;4.53;;;;;;;16.57;69.56;100541.53;4993712;27;20464;-70
2022/06/22 06:12:43;;;;;;;5.72;3.88;;;;;;;16.59;69.38;100548.38;4978353;28;20190;-70
2022/06/22 06:15:10;;;;;;;4.90;3.47;;;;;;;16.66;69.70;100546.63;4976389;28;20684;-71
2022/06/22 06:17:39;;;;;;;4.22;3.45;;;;;;;16.74;69.62;100540.38;4961250;28;20040;-71
2022/06/22 06:20:07;;;;;;;4.00;3.60;;;;;;;16.76;69.88;100540.22;4993147;27;20341;-71
2022/06/22 06:22:35;;;;;;;6.43;3.70;;;;;;;16.77;69.46;100542.69;4999561;27;20020;-71
2022/06/22 06:27:53;;;;;;;6.00;3.40;;;;;;;16.95;68.24;100538.84;5025270;27;20028;-73
2022/06/22 06:30:31;;;;;;;3.78;3.47;;;;;;;17.01;67.67;100538.13;5003398;27;20032;-71
2022/06/22 06:33:02;;;;;;;3.75;3.45;;;;;;;16.99;68.41;100540.16;5018645;27;20967;-72
2022/06/22 06:35:49;;;;;;;4.22;3.20;;;;;;;17.06;67.50;100532.22;5036986;27;20080;-73
2022/06/22 06:38:36;;;;;;;3.63;2.90;;;;;;;17.05;68.13;100533.22;5018041;27;20008;-69
2022/06/22 06:41:12;;;;;;;5.30;3.30;;;;;;;17.11;68.00;100544.03;5016133;27;20367;-71
2022/06/22 06:44:02;;;;;;;4.75;4.07;;;;;;;17.17;67.86;100542.47;5034964;27;20020;-69
2022/06/22 06:46:34;;;;;;;3.80;3.50;;;;;;;17.26;67.58;100535.16;5016535;27;20012;-70
2022/06/22 06:49:09;;;;;;;7.53;3.17;;;;;;;17.27;67.12;100539.50;5033918;27;20024;-70
2022/06/22 06:51:36;;;;;;;4.32;3.00;;;;;;;17.41;66.82;100524.47;5008604;27;20085;-72
2022/06/22 06:54:16;;;;;;;5.97;3.10;;;;;;;17.46;66.65;100514.84;5017912;27;20206;-71
2022/06/22 06:56:51;;;;;;;2.97;2.70;;;;;;;17.53;66.41;100520.28;5033076;27;20863;-71
2022/06/22 06:59:18;;;;;;;4.82;2.33;;;;;;;17.65;66.37;100520.63;5015639;27;20092;-71
2022/06/22 07:01:46;;;;;;;4.28;3.00;;;;;;;17.70;66.25;100531.59;5016409;27;20008;-71
2022/06/22 07:04:15;;;;;;;2.72;2.55;;;;;;;17.77;65.04;100532.50;5018715;27;20017;-71
2022/06/22 07:06:40;;;;;;;3.25;2.80;;;;;;;17.85;65.17;100524.34;5018202;27;20408;-71
2022/06/22 07:09:15;;;;;;;3.67;2.70;;;;;;;18.01;64.07;100528.66;5016022;27;20449;-71
2022/06/22 07:11:51;;;;;;;2.72;2.53;;;;;;;18.03;63.47;100520.41;4996503;28;20844;-69
2022/06/22 07:14:20;;;;;;;3.30;2.25;;;;;;;18.12;63.04;100524.63;5012914;27;20025;-70
2022/06/22 07:16:46;;;;;;;3.80;2.40;;;;;;;18.21;62.62;100517.28;5011123;28;20025;-71
2022/06/22 07:19:16;;;;;;;4.47;2.60;;;;;;;18.32;62.70;100513.28;5008780;27;20097;-69
2022/06/22 07:21:45;;;;;;;4.05;2.58;;;;;;;18.43;62.55;100522.59;5020703;27;20009;-71
2022/06/22 07:24:23;;;;;;;2.90;2.60;;;;;;;18.59;61.09;100526.88;5045264;27;20360;-71
2022/06/22 07:26:54;;;;;;;2.35;2.10;;;;;;;18.68;60.95;100531.91;5002393;27;20615;-70
2022/06/22 07:29:22;;;;;;;4.75;2.10;;;;;;;18.82;58.21;100538.16;5033665;27;20021;-72
2022/06/22 07:31:54;;;;;;;2.10;1.98;;;;;;;18.87;59.04;100532.25;5031382;27;20182;-69
2022/06/22 07:34:27;;;;;;;2.03;1.90;;;;;;;19.05;58.42;100545.16;4986728;28;20895;-72
2022/06/22 07:36:55;;;;;;;4.05;2.15;;;;;;;19.10;58.67;100540.00;5010690;28;20477;-71
2022/06/22 07:39:35;;;;;;;4.07;2.30;;;;;;;19.34;56.39;100549.41;5001994;27;20027;-69
2022/06/22 07:42:01;;;;;;;4.60;2.78;;;;;;;19.41;57.36;100546.75;5034975;27;20119;-71
2022/06/22 07:44:28;;;;;;;3.22;2.55;;;;;;;19.37;57.57;100548.19;5015866;27;20374;-71
2022/06/22 07:47:05;;;;;;;2.42;2.20;;;;;;;19.37;57.39;100549.03;5018435;27;20020;-69
2022/06/22 07:49:43;;;;;;;2.42;1.92;;;;;;;19.17;57.27;100545.41;5033277;27;20032;-71
2022/06/22 07:52:12;;;;;;;3.72;2.10;;;;;;;19.30;56.94;100544.66;5034815;27;20021;-72
2022/06/22 07:54:47;;;;;;;4.00;1.85;;;;;;;19.33;57.35;100546.91;5033135;27;20146;-72
2022/06/22 07:57:26;;;;;;;5.00;2.00;;;;;;;19.44;56.25;100559.75;5015537;27;20077;-71
2022/06/22 07:59:56;;;;;;;1.88;1.77;;;;;;;19.49;50.88;100560.00;5031796;27;20486;-69
2022/06/22 08:02:41;;;;;;;1.50;1.40;;;;;;;19.48;50.69;100546.78;5013007;27;20014;-69
2022/06/22 08:05:08;;;;;;;1.67;1.52;;;;;;;19.59;48.93;100534.63;5013222;28;20474;-70
2022/06/22 08:07:38;;;;;;;1.48;1.48;;;;;;;19.60;49.98;100522.88;4978499;28;20097;-73
2022/06/22 08:10:15;;;;;;;2.42;1.40;;;;;;;19.64;48.87;100522.28;4998445;27;20010;-73
2022/06/22 08:12:59;;;;;;;1.90;1.70;;;;;;;19.77;48.99;100521.50;4999591;27;20009;-70
2022/06/22 08:15:24;;;;;;;3.30;1.83;;;;;;;19.98;52.91;100522.38;5034772;27;20427;-70
2022/06/22 08:17:52;;;;;;;1.85;1.58;;;;;;;19.97;50.93;100526.09;5017697;27;20029;-69
2022/06/22 08:20:37;;;;;;;2.38;1.60;;;;;;;19.93;53.18;100520.31;5018793;27;20017;-71
2022/06/22 08:23:05;;;;;;;5.05;1.88;;;;;;;20.17;52.59;100510.00;5003483;27;20044;-71
2022/06/22 08:25:31;;;;;;;4.43;1.85;;;;;;;20.18;52.98;100528.59;5020876;27;20016;-69
2022/06/22 08:27:57;;;;;;;2.03;1.48;;;;;;;20.29;52.97;100529.00;5020650;27;20326;-70
2022/06/22 08:30:22;;;;;;;3.40;1.70;;;;;;;20.51;53.43;100538.50;5020971;27;20577;-71
2022/06/22 08:33:13;;;;;;;2.72;2.03;;;;;;;20.71;54.37;100543.09;5020215;27;20028;-70
2022/06/22 08:35:53;;;;;;;1.92;1.60;;;;;;;20.93;54.67;100536.44;5039285;27;20075;-71
2022/06/22 08:38:31;;;;;;;2.05;1.80;;;;;;;20.97;50.94;100541.38;5016135;27;20020;-69
2022/06/22 08:40:59;;;;;;;2.85;2.08;;;;;;;21.15;51.15;100535.34;5019459;27;20211;-69
2022/06/22 08:43:28;;;;;;;2.40;1.83;;;;;;;21.33;50.54;100534.66;5031614;27;20114;-71
2022/06/22 08:46:16;;;;;;;2.63;1.77;;;;;;;21.46;51.83;100542.66;5051686;27;20008;-70
2022/06/22 08:49:01;;;;;;;1.88;1.67;;;;;;;21.54;49.69;100539.75;5014060;27;20019;-71
2022/06/22 08:51:38;;;;;;;6.25;1.88;;;;;;;21.66;51.25;100523.78;5050337;27;20940;-71
2022/06/22 08:54:07;;;;;;;1.95;1.70;;;;;;;21.77;50.10;100528.47;5032135;27;20021;-71
2022/06/22 08:57:04;;;;;;;3.60;1.65;;;;;;;22.01;50.04;100528.75;5052142;27;20174;-71
2022/06/22 09:00:07;;;;;;;1.70;1.60;;;;;;;22.15;48.70;100523.25;5036594;27;20047;-69
2022/06/22 09:02:51;;;;;;;2.13;1.73;;;;;;;22.12;48.06;100528.03;5013604;27;20073;-71
2022/06/22 09:05:44;;;;;;;5.00;1.88;;;;;;;22.28;48.86;100523.97;5020019;27;20021;-72
2022/06/22 09:08:16;;;;;;;1.83;1.70;;;;;;;22.51;51.88;100519.84;5012184;27;20033;-71
2022/06/22 09:10:48;;;;;;;2.08;1.65;;;;;;;22.74;50.74;100515.69;5012610;27;20651;-71
2022/06/22 09:13:22;;;;;;;1.65;1.42;;;;;;;22.87;50.55;100522.81;5012320;27;20465;-70
2022/06/22 09:16:17;;;;;;;1.90;1.80;;;;;;;23.14;48.77;100529.63;5011805;28;20009;-72
2022/06/22 09:19:14;;;;;;;1.58;1.48;;;;;;;23.22;46.45;100523.06;5000144;27;20141;-70
2022/06/22 09:22:07;;;;;;;1.70;1.60;;;;;;;23.25;47.87;100525.34;5026220;27;20029;-71
2022/06/22 09:24:41;;;;;;;1.60;1.50;;;;;;;23.26;45.63;100520.75;5034429;27;20029;-69
2022/06/22 09:27:09;;;;;;;3.17;1.80;;;;;;;23.46;45.80;100520.50;5031172;27;20586;-71
2022/06/22 09:30:10;;;;;;;2.15;1.75;;;;;;;23.90;46.95;100514.94;5035487;27;20051;-71
2022/06/22 09:32:47;;;;;;;2.22;1.70;;;;;;;24.23;45.52;100511.72;4976010;28;20335;-69
2022/06/22 09:35:27;;;;;;;1.55;1.45;;;;;;;24.49;47.00;100505.03;5014473;27;20029;-70
2022/06/22 09:38:14;;;;;;;1.58;1.33;;;;;;;24.83;44.68;100512.56;4980461;28;20414;-72
2022/06/22 09:41:24;;;;;;;2.60;1.48;;;;;;;24.98;44.11;100503.94;5004184;28;20022;-72
2022/06/22 09:43:53;;;;;;;1.67;1.42;;;;;;;25.13;42.72;100500.72;4989906;28;20274;-72
2022/06/22 09:46:25;;;;;;;2.60;1.60;;;;;;;25.31;45.15;100503.28;4990529;28;20021;-69
2022/06/22 09:49:07;;;;;;;1.73;1.42;;;;;;;25.74;43.99;100505.72;4994740;28;20117;-70
2022/06/22 09:51:38;;;;;;;2.55;1.65;;;;;;;25.95;40.81;100498.75;4988118;28;20018;-72
2022/06/22 09:56:19;;;;;;;4.47;1.58;;;;;;;26.04;41.49;100492.69;5011651;28;20073;-72
2022/06/22 09:57:04;;;;;;;2.03;1.50;;;;;;;26.24;45.30;100494.09;5009962;27;20257;-72
2022/06/22 09:59:46;;;;;;;3.90;1.77;;;;;;;26.44;41.90;100490.88;4996354;28;20087;-71
2022/06/22 10:02:33;;;;;;;3.75;1.75;;;;;;;26.34;42.76;100488.84;4979787;28;20098;-72
2022/06/22 10:05:08;;;;;;;2.03;1.70;;;;;;;26.25;40.73;100482.19;4996776;28;20434;-70
2022/06/22 10:07:46;;;;;;;2.10;1.30;;;;;;;26.17;41.62;100488.00;4992582;28;20010;-72
2022/06/22 10:10:14;;;;;;;4.95;1.80;;;;;;;26.62;41.31;100489.75;4995169;28;20041;-72
2022/06/22 10:12:53;;;;;;;1.50;1.40;;;;;;;26.49;44.47;100484.69;4998282;28;20486;-72
2022/06/22 10:15:43;;;;;;;2.75;1.67;;;;;;;26.89;42.63;100483.63;5014900;27;20289;-72
2022/06/22 10:18:38;;;;;;;1.85;1.60;;;;;;;26.82;39.33;100480.28;5040491;27;20017;-71
2022/06/22 10:21:19;;;;;;;1.55;1.45;;;;;;;27.70;38.49;100474.78;5031270;27;20023;-72
2022/06/22 10:23:48;;;;;;;1.40;1.40;;;;;;;28.21;38.76;100470.84;5037571;27;20070;-70
2022/06/22 10:26:54;;;;;;;2.33;1.55;;;;;;;28.49;37.54;100455.25;5036844;27;20155;-71
2022/06/22 10:29:35;;;;;;;1.83;1.60;;;;;;;28.43;37.47;100452.50;5041203;27;20019;-71
2022/06/22 10:32:27;;;;;;;2.60;2.20;;;;;;;28.81;38.32;100463.34;5060687;27;20012;-73
2022/06/22 10:35:14;;;;;;;1.30;1.30;;;;;;;29.53;34.54;100460.84;5037358;27;20124;-71
2022/06/22 10:38:04;;;;;;;2.00;1.63;;;;;;;29.24;37.37;100450.41;5055956;27;20849;-71
2022/06/22 10:47:13;;;;;;;2.60;1.40;;;;;;;30.30;32.82;100449.09;5053626;27;20120;-72
2022/06/22 10:50:13;;;;;;;1.40;1.30;;;;;;;30.15;32.03;100452.69;5034565;27;20301;-71
2022/06/22 10:52:45;;;;;;;2.72;1.55;;;;;;;29.94;33.66;100451.88;5031375;27;20042;-71
2022/06/22 10:55:23;;;;;;;2.05;1.30;;;;;;;30.14;34.13;100451.84;5033544;27;20122;-72
2022/06/22 10:57:52;;;;;;;1.25;1.20;;;;;;;30.31;34.77;100458.91;5051582;27;20744;-72
2022/06/22 11:00:27;;;;;;;1.30;1.20;;;;;;;31.15;33.17;100455.63;5015876;27;20342;-72
2022/06/22 11:03:09;;;;;;;1.50;1.40;;;;;;;31.75;31.15;100454.72;5034961;27;20027;-71
2022/06/22 11:05:43;;;;;;;2.83;1.60;;;;;;;31.80;30.50;100457.41;5051963;27;20020;-72
2022/06/22 11:08:26;;;;;;;1.55;1.15;;;;;;;32.28;31.34;100443.84;5031826;27;20051;-70
2022/06/22 11:11:07;;;;;;;;;;;;;;;32.32;28.69;100453.13;5022698;27;20071;-72
2022/06/22 11:14:03;;;;;;;1.83;1.23;;;;;;;32.56;30.85;100451.47;5011415;28;20647;-70
2022/06/22 11:16:50;;;;;;;1.42;1.33;;;;;;;32.92;30.46;100453.81;5010393;27;20077;-72
2022/06/22 11:19:44;;;;;;;1.50;1.20;;;;;;;32.34;29.76;100455.56;5025476;27;20029;-70
2022/06/22 11:22:19;;;;;;;1.40;1.30;;;;;;;31.24;31.39;100444.94;5029371;27;20389;-72
2022/06/22 11:30:48;;;;;;;2.08;1.17;;;;;;;31.34;30.43;100448.41;5029416;27;20036;-71
2022/06/22 11:31:43;;;;;;;1.30;1.20;;;;;;;32.25;29.93;100446.34;5014592;27;20499;-73
2022/06/22 11:34:50;;;;;;;1.13;1.08;;;;;;;33.08;29.04;100452.47;5014428;28;20029;-72
2022/06/22 11:37:30;;;;;;;2.72;2.47;;;;;;;33.40;27.61;100459.19;5030450;27;20293;-70
2022/06/22 11:40:16;;;;;;;1.13;1.13;;;;;;;33.04;26.44;100457.75;5008651;28;20017;-72
2022/06/22 11:42:50;;;;;;;1.50;1.08;;;;;;;33.43;28.48;100464.06;5011872;28;20073;-72
2022/06/22 11:45:51;;;;;;;4.00;1.10;;;;;;;33.91;26.81;100459.50;5016254;27;20061;-71
2022/06/22 11:48:29;;;;;;;3.08;0.98;;;;;;;33.55;26.66;100466.38;5006357;27;20421;-72
2022/06/22 11:51:21;;;;;;;1.42;1.23;;;;;;;33.18;27.27;100467.97;5029990;27;20521;-72
2022/06/22 11:54:08;;;;;;;1.10;1.10;;;;;;;32.25;27.55;100470.97;5017781;27;20514;-72
2022/06/22 11:56:53;;;;;;;1.10;1.00;;;;;;;32.22;27.50;100468.84;5034532;27;20016;-72
2022/06/22 11:59:56;;;;;;;1.70;1.60;;;;;;;31.84;27.27;100470.25;5032552;27;20017;-74
2022/06/22 12:02:37;;;;;;;1.05;1.05;;;;;;;32.33;30.94;100465.69;5032986;27;20085;-73
2022/06/22 12:05:28;;;;;;;1.58;1.00;;;;;;;32.08;30.34;100458.53;5036117;27;20032;-72
2022/06/22 12:08:03;;;;;;;2.13;1.30;;;;;;;32.27;26.79;100460.56;5034231;27;20430;-73
2022/06/22 12:10:43;;;;;;;1.20;1.20;;;;;;;32.65;26.51;100461.50;5039382;27;20067;-72
2022/06/22 12:13:11;;;;;;;1.92;1.10;;;;;;;32.81;27.77;100464.09;5058187;27;20120;-72
2022/06/22 12:15:59;;;;;;;1.02;0.93;;;;;;;33.20;26.91;100454.78;5057212;27;20115;-73
2022/06/22 12:18:42;;;;;;;1.58;1.15;;;;;;;34.11;26.34;100450.88;5039333;27;20008;-72
2022/06/22 12:21:42;;;;;;;1.30;1.20;;;;;;;34.51;26.64;100440.28;5051792;27;20678;-73
2022/06/22 12:24:26;;;;;;;1.00;1.00;;;;;;;34.36;25.74;100435.88;4943098;27;20048;-72